createdAt,value
2019-04-22T00:02:07.931Z,59.90
2019-04-22T00:04:49.814Z,59.80
2019-04-22T00:07:29.245Z,60.10
2019-04-22T00:12:37.330Z,60.30
2019-04-22T00:14:59.969Z,60.00
2019-04-22T00:17:38.867Z,60.10
2019-04-22T00:20:04.608Z,60.50
2019-04-22T00:22:32.027Z,60.40
2019-04-22T00:25:10.456Z,60.20
2019-04-22T00:32:50.066Z,60.20
2019-04-22T00:35:19.514Z,60.10
2019-04-22T00:37:54.185Z,60.80
2019-04-22T00:40:25.264Z,60.20
2019-04-22T00:42:53.298Z,60.80
2019-04-22T00:45:40.020Z,60.40
2019-04-22T00:47:53.015Z,60.60
2019-04-22T00:50:26.801Z,60.60
2019-04-22T00:52:57.629Z,61.60
2019-04-22T00:55:29.898Z,60.50
2019-04-22T00:57:54.254Z,60.70
2019-04-22T01:00:27.745Z,60.40
2019-04-22T01:03:01.642Z,60.20
2019-04-22T01:05:30.161Z,60.30
2019-04-22T01:08:04.306Z,60.40
2019-04-22T01:10:32.393Z,60.30
2019-04-22T01:12:57.316Z,60.50
2019-04-22T01:15:30.338Z,60.50
2019-04-22T01:18:00.236Z,60.60
2019-04-22T01:20:58.851Z,60.20
2019-04-22T01:22:59.113Z,60.30
2019-04-22T01:25:28.026Z,60.20
2019-04-22T01:27:52.844Z,60.10
2019-04-22T01:30:21.144Z,60.40
2019-04-22T01:32:44.881Z,60.30
2019-04-22T01:35:24.453Z,60.20
2019-04-22T01:37:54.409Z,60.20
2019-04-22T01:40:42.978Z,60.00
2019-04-22T01:43:13.347Z,59.80
2019-04-22T01:45:39.538Z,59.90
2019-04-22T01:48:11.462Z,59.70
2019-04-22T01:50:37.039Z,59.50
2019-04-22T01:58:08.220Z,59.60
2019-04-22T02:00:40.126Z,59.70
2019-04-22T02:03:10.551Z,59.50
2019-04-22T02:05:44.119Z,59.40
2019-04-22T02:08:22.013Z,59.40
2019-04-22T02:10:53.212Z,59.40
2019-04-22T02:13:17.108Z,59.40
2019-04-22T02:15:47.865Z,59.40
2019-04-22T02:18:18.092Z,59.50
2019-04-22T02:20:42.951Z,59.40
2019-04-22T02:28:32.550Z,59.10
2019-04-22T02:46:22.445Z,58.70
2019-04-22T02:51:12.548Z,58.50
2019-04-22T02:58:55.022Z,59.10
2019-04-22T03:01:13.585Z,59.30
2019-04-22T03:03:54.478Z,59.10
2019-04-22T03:08:45.571Z,59.40
2019-04-22T03:11:22.467Z,59.30
2019-04-22T03:13:51.137Z,59.20
2019-04-22T03:16:17.812Z,59.50
2019-04-22T03:18:51.281Z,59.50
2019-04-22T03:21:15.936Z,59.40
2019-04-22T03:26:23.250Z,59.70
2019-04-22T03:28:51.801Z,59.40
2019-04-22T03:31:34.020Z,59.50
2019-04-22T03:34:26.229Z,59.80
2019-04-22T03:36:57.291Z,59.80
2019-04-22T03:39:04.502Z,59.70
2019-04-22T03:41:46.117Z,59.70
2019-04-22T03:44:08.270Z,59.80
2019-04-22T03:46:30.098Z,59.70
2019-04-22T03:49:12.071Z,59.50
2019-04-22T03:51:38.787Z,59.40
2019-04-22T03:54:02.837Z,59.30
2019-04-22T03:56:59.105Z,59.30
2019-04-22T03:58:57.095Z,59.50
2019-04-22T04:01:36.904Z,60.00
2019-04-22T04:04:20.943Z,60.50
2019-04-22T04:06:36.651Z,60.40
2019-04-22T04:09:01.966Z,60.70
2019-04-22T04:11:38.412Z,60.20
2019-04-22T04:14:00.882Z,60.20
2019-04-22T04:16:36.723Z,60.40
2019-04-22T04:19:08.217Z,61.40
2019-04-22T04:21:33.043Z,61.80
2019-04-22T04:24:18.326Z,61.80
2019-04-22T04:26:47.870Z,62.80
2019-04-22T04:29:17.158Z,62.90
2019-04-22T04:31:51.297Z,63.00
2019-04-22T04:34:29.765Z,63.00
2019-04-22T04:36:37.089Z,62.70
2019-04-22T04:39:05.668Z,62.80
2019-04-22T04:41:43.324Z,62.50
2019-04-22T04:44:11.148Z,62.40
2019-04-22T04:49:19.279Z,62.90
2019-04-22T05:01:45.119Z,64.00
2019-04-22T05:09:16.796Z,64.50
2019-04-22T05:12:03.535Z,64.20
2019-04-22T05:14:09.269Z,63.90
2019-04-22T05:16:43.071Z,63.80
2019-04-22T05:21:38.519Z,63.80
2019-04-22T05:24:19.811Z,63.60
2019-04-22T05:26:44.151Z,63.00
2019-04-22T05:29:11.086Z,62.50
2019-04-22T05:31:43.652Z,61.80
2019-04-22T05:34:12.358Z,61.40
2019-04-22T05:36:40.898Z,61.20
2019-04-22T05:39:12.484Z,61.00
2019-04-22T05:41:44.551Z,60.90
2019-04-22T05:46:47.561Z,60.60
2019-04-22T05:49:15.026Z,60.70
2019-04-22T05:51:43.649Z,60.60
2019-04-22T05:54:14.618Z,60.60
2019-04-22T05:59:12.519Z,60.40
2019-04-22T06:01:51.267Z,60.30
2019-04-22T06:04:19.915Z,59.50
2019-04-22T06:06:39.926Z,59.60
2019-04-22T06:09:14.715Z,59.90
2019-04-22T06:11:36.280Z,59.80
2019-04-22T06:14:18.740Z,59.80
2019-04-22T06:16:50.405Z,59.00
2019-04-22T06:19:18.806Z,58.70
2019-04-22T06:21:48.121Z,58.60
2019-04-22T06:24:38.110Z,58.30
2019-04-22T06:27:01.630Z,58.10
2019-04-22T06:32:23.101Z,57.30
2019-04-22T06:37:05.319Z,56.70
2019-04-22T06:39:28.206Z,56.40
2019-04-22T06:42:01.059Z,56.30
2019-04-22T06:46:56.480Z,56.00
2019-04-22T06:49:31.856Z,55.40
2019-04-22T06:52:01.198Z,53.60
2019-04-22T06:54:28.989Z,53.80
2019-04-22T06:56:59.596Z,54.10
2019-04-22T07:02:06.332Z,53.30
2019-04-22T07:04:29.671Z,53.10
2019-04-22T07:07:03.377Z,53.10
2019-04-22T07:09:38.304Z,52.50
2019-04-22T07:12:04.753Z,52.00
2019-04-22T07:14:31.666Z,52.60
2019-04-22T07:17:04.725Z,52.30
2019-04-22T07:19:33.728Z,52.00
2019-04-22T07:22:08.489Z,51.10
2019-04-22T07:27:08.608Z,49.60
2019-04-22T07:29:32.564Z,49.90
2019-04-22T07:32:07.850Z,49.70
2019-04-22T07:34:56.805Z,49.30
2019-04-22T07:39:35.615Z,48.50
2019-04-22T07:42:17.205Z,47.40
2019-04-22T07:44:38.457Z,47.20
2019-04-22T07:47:13.631Z,47.60
2019-04-22T07:52:10.069Z,46.00
2019-04-22T07:54:43.142Z,46.60
2019-04-22T07:57:15.088Z,45.70
2019-04-22T07:59:40.549Z,45.90
2019-04-22T08:02:10.384Z,46.10
2019-04-22T08:04:54.285Z,46.50
2019-04-22T08:07:12.671Z,46.80
2019-04-22T08:09:53.968Z,45.70
2019-04-22T08:12:11.991Z,46.20
2019-04-22T08:14:45.846Z,46.40
2019-04-22T08:17:43.154Z,46.80
2019-04-22T08:19:50.140Z,46.40
2019-04-22T08:22:14.338Z,46.80
2019-04-22T08:24:47.230Z,44.70
2019-04-22T08:27:30.393Z,45.70
2019-04-22T08:29:52.198Z,45.90
2019-04-22T08:32:14.593Z,45.20
2019-04-22T08:34:42.817Z,45.40
2019-04-22T08:37:41.557Z,45.10
2019-04-22T08:39:56.722Z,46.30
2019-04-22T08:42:27.080Z,46.30
2019-04-22T08:47:26.251Z,45.00
2019-04-22T08:49:56.994Z,45.70
2019-04-22T08:52:26.112Z,46.50
2019-04-22T08:54:51.247Z,44.60
2019-04-22T08:57:26.085Z,45.50
2019-04-22T08:59:59.231Z,45.30
2019-04-22T09:02:26.047Z,42.90
2019-04-22T09:04:52.159Z,44.10
2019-04-22T09:07:36.801Z,44.30
2019-04-22T09:09:53.308Z,43.90
2019-04-22T09:12:34.747Z,44.10
2019-04-22T09:14:49.549Z,43.90
2019-04-22T09:19:54.566Z,45.50
2019-04-22T09:22:22.049Z,46.50
2019-04-22T09:24:54.473Z,45.70
2019-04-22T09:27:33.186Z,45.90
2019-04-22T09:30:01.655Z,46.50
2019-04-22T09:32:26.401Z,45.20
2019-04-22T09:34:56.265Z,44.00
2019-04-22T09:40:04.499Z,44.80
2019-04-22T09:42:32.539Z,44.60
2019-04-22T09:44:59.253Z,45.30
2019-04-22T09:47:33.869Z,46.30
2019-04-22T09:50:03.748Z,45.20
2019-04-22T09:52:28.005Z,44.80
2019-04-22T09:55:06.140Z,44.10
2019-04-22T09:57:44.977Z,43.60
2019-04-22T10:00:03.346Z,44.20
2019-04-22T10:02:34.385Z,45.30
2019-04-22T10:05:07.887Z,42.60
2019-04-22T10:07:32.433Z,43.50
2019-04-22T10:10:08.977Z,43.20
2019-04-22T10:12:36.525Z,42.80
2019-04-22T10:15:00.549Z,43.50
2019-04-22T10:17:35.019Z,42.90
2019-04-22T10:20:08.982Z,41.50
2019-04-22T10:22:42.157Z,42.00
2019-04-22T10:25:06.288Z,41.10
2019-04-22T10:27:32.802Z,40.90
2019-04-22T10:30:02.798Z,41.30
2019-04-22T10:32:38.082Z,41.00
2019-04-22T10:34:55.529Z,40.80
2019-04-22T10:37:20.453Z,41.30
2019-04-22T10:39:56.251Z,41.70
2019-04-22T10:42:21.367Z,40.90
2019-04-22T10:44:57.286Z,40.90
2019-04-22T10:47:27.729Z,41.10
2019-04-22T10:49:58.014Z,40.60
2019-04-22T10:52:27.653Z,41.90
2019-04-22T10:54:56.619Z,41.30
2019-04-22T10:57:25.633Z,40.50
2019-04-22T10:59:54.514Z,41.50
2019-04-22T11:02:23.453Z,41.40
2019-04-22T11:04:52.431Z,41.50
2019-04-22T11:07:32.554Z,40.50
2019-04-22T11:09:59.060Z,39.90
2019-04-22T11:12:26.091Z,40.40
2019-04-22T11:14:53.756Z,40.00
2019-04-22T11:17:23.955Z,40.80
2019-04-22T11:19:53.368Z,41.10
2019-04-22T11:22:27.664Z,40.00
2019-04-22T11:24:53.300Z,39.90
2019-04-22T11:27:23.309Z,39.60
2019-04-22T11:29:53.155Z,38.90
2019-04-22T11:32:22.344Z,38.70
2019-04-22T11:34:51.310Z,38.90
2019-04-22T11:37:20.763Z,38.90
2019-04-22T11:40:04.666Z,39.60
2019-04-22T11:42:20.467Z,38.90
2019-04-22T11:44:50.863Z,38.60
2019-04-22T11:47:19.698Z,37.40
2019-04-22T11:49:49.715Z,37.50
2019-04-22T11:52:20.368Z,37.40
2019-04-22T11:54:50.687Z,37.10
2019-04-22T11:57:19.540Z,37.70
2019-04-22T11:59:49.031Z,37.30
2019-04-22T12:02:21.606Z,37.80
2019-04-22T12:04:51.820Z,37.00
2019-04-22T12:07:21.281Z,37.40
2019-04-22T12:09:51.305Z,37.40
2019-04-22T12:12:21.549Z,37.10
2019-04-22T12:14:50.382Z,38.10
2019-04-22T12:17:20.015Z,36.90
2019-04-22T12:19:50.356Z,37.60
2019-04-22T12:22:20.640Z,37.10
2019-04-22T12:24:50.351Z,37.50
2019-04-22T12:27:20.910Z,37.60
2019-04-22T12:29:51.098Z,37.10
2019-04-22T12:32:21.289Z,36.40
2019-04-22T12:34:51.282Z,37.00
2019-04-22T12:37:28.952Z,36.70
2019-04-22T12:39:53.101Z,36.30
2019-04-22T12:42:21.499Z,35.80
2019-04-22T12:44:51.186Z,36.70
2019-04-22T12:47:20.124Z,36.70
2019-04-22T12:49:57.111Z,35.30
2019-04-22T12:52:26.611Z,35.80
2019-04-22T12:54:50.979Z,35.80
2019-04-22T12:57:20.671Z,35.60
2019-04-22T12:59:49.855Z,35.80
2019-04-22T13:02:18.832Z,35.60
2019-04-22T13:04:47.922Z,35.00
2019-04-22T13:07:17.688Z,35.50
2019-04-22T13:09:47.368Z,35.30
2019-04-22T13:12:17.157Z,35.30
2019-04-22T13:14:46.142Z,35.60
2019-04-22T13:17:15.720Z,35.70
2019-04-22T13:19:45.307Z,35.40
2019-04-22T13:22:14.648Z,35.80
2019-04-22T13:24:43.852Z,35.70
2019-04-22T13:27:13.010Z,35.70
2019-04-22T13:29:43.378Z,36.00
2019-04-22T13:32:13.210Z,35.30
2019-04-22T13:34:46.655Z,34.40
2019-04-22T13:37:12.823Z,34.50
2019-04-22T13:39:42.882Z,34.70
2019-04-22T13:42:16.152Z,34.90
2019-04-22T13:44:44.041Z,35.20
2019-04-22T13:47:30.793Z,33.90
2019-04-22T13:50:17.676Z,34.00
2019-04-22T13:52:48.416Z,34.30
2019-04-22T13:55:05.740Z,33.60
2019-04-22T13:57:34.363Z,34.10
2019-04-22T13:59:50.727Z,34.10
2019-04-22T14:02:24.329Z,34.40
2019-04-22T14:04:54.916Z,34.30
2019-04-22T14:07:24.841Z,34.80
2019-04-22T14:09:54.109Z,34.60
2019-04-22T14:12:22.895Z,34.60
2019-04-22T14:14:52.562Z,34.50
2019-04-22T14:17:22.990Z,34.60
2019-04-22T14:19:52.820Z,34.60
2019-04-22T14:22:22.037Z,34.50
2019-04-22T14:24:52.225Z,33.10
2019-04-22T14:27:30.622Z,33.90
2019-04-22T14:29:51.652Z,33.90
2019-04-22T14:32:25.366Z,33.80
2019-04-22T14:34:51.135Z,33.60
2019-04-22T14:37:20.326Z,34.00
2019-04-22T14:39:49.323Z,33.50
2019-04-22T14:42:38.485Z,34.10
2019-04-22T14:47:47.574Z,34.50
2019-04-22T14:50:12.637Z,35.00
2019-04-22T14:52:42.080Z,35.00
2019-04-22T14:55:01.875Z,34.80
2019-04-22T14:57:21.378Z,33.90
2019-04-22T14:59:50.218Z,34.20
2019-04-22T15:02:19.631Z,33.80
2019-04-22T15:04:49.947Z,34.40
2019-04-22T15:07:19.202Z,35.20
2019-04-22T15:09:48.155Z,35.60
2019-04-22T15:12:27.839Z,35.60
2019-04-22T15:14:47.953Z,35.80
2019-04-22T15:17:22.751Z,36.10
2019-04-22T15:19:53.980Z,35.70
2019-04-22T15:22:22.882Z,36.00
2019-04-22T15:24:52.435Z,36.00
2019-04-22T15:27:22.458Z,36.00
2019-04-22T15:29:51.740Z,36.00
2019-04-22T15:32:21.205Z,35.90
2019-04-22T15:34:51.149Z,36.10
2019-04-22T15:37:20.477Z,36.30
2019-04-22T15:39:49.870Z,36.30
2019-04-22T15:42:27.615Z,36.40
2019-04-22T15:44:49.224Z,36.00
2019-04-22T15:47:18.836Z,35.80
2019-04-22T15:49:47.907Z,36.20
2019-04-22T15:52:16.710Z,36.40
2019-04-22T15:54:49.983Z,36.90
2019-04-22T15:57:17.187Z,36.80
2019-04-22T16:00:05.252Z,37.10
2019-04-22T16:02:16.469Z,37.10
2019-04-22T16:04:46.532Z,37.10
2019-04-22T16:07:16.854Z,37.10
2019-04-22T16:09:45.846Z,37.30
2019-04-22T16:12:22.715Z,37.30
2019-04-22T16:14:50.547Z,37.00
2019-04-22T16:17:16.797Z,36.80
2019-04-22T16:19:46.712Z,36.80
2019-04-22T16:22:18.986Z,37.30
2019-04-22T16:25:02.318Z,37.20
2019-04-22T16:27:32.065Z,37.40
2019-04-22T16:30:01.407Z,37.40
2019-04-22T16:32:31.808Z,37.40
2019-04-22T16:35:00.863Z,37.40
2019-04-22T16:37:30.541Z,37.00
2019-04-22T16:40:00.764Z,36.70
2019-04-22T16:42:37.899Z,36.70
2019-04-22T16:45:00.054Z,36.80
2019-04-22T16:47:28.921Z,37.20
2019-04-22T16:49:57.671Z,37.20
2019-04-22T16:52:27.958Z,36.90
2019-04-22T16:54:56.947Z,37.10
2019-04-22T16:57:26.125Z,37.40
2019-04-22T16:59:55.003Z,37.50
2019-04-22T17:02:45.191Z,37.60
2019-04-22T17:05:18.012Z,37.70
2019-04-22T17:07:48.105Z,38.00
2019-04-22T17:10:17.773Z,38.20
2019-04-22T17:12:57.656Z,38.40
2019-04-22T17:15:18.891Z,38.50
2019-04-22T17:17:49.150Z,38.40
2019-04-22T17:20:37.520Z,38.90
2019-04-22T17:23:07.458Z,38.70
2019-04-22T17:25:36.372Z,39.00
2019-04-22T17:28:05.688Z,38.60
2019-04-22T17:30:35.880Z,38.80
2019-04-22T17:33:05.197Z,39.10
2019-04-22T17:35:34.092Z,39.10
2019-04-22T17:38:12.571Z,39.30
2019-04-22T17:40:53.743Z,39.80
2019-04-22T17:43:36.118Z,40.00
2019-04-22T17:46:07.104Z,39.90
2019-04-22T17:49:04.320Z,40.30
2019-04-22T17:51:30.084Z,40.30
2019-04-22T17:53:57.971Z,40.50
2019-04-22T17:56:27.572Z,40.60
2019-04-22T17:58:56.802Z,40.50
2019-04-22T18:01:29.741Z,40.70
2019-04-22T18:03:45.780Z,40.70
2019-04-22T18:06:19.259Z,40.70
2019-04-22T18:08:55.180Z,41.30
2019-04-22T18:11:36.393Z,41.50
2019-04-22T18:14:16.956Z,41.60
2019-04-22T18:16:32.278Z,41.70
2019-04-22T18:19:00.813Z,41.40
2019-04-22T18:21:29.234Z,41.30
2019-04-22T18:23:54.188Z,41.00
2019-04-22T18:26:32.285Z,41.20
2019-04-22T18:29:07.117Z,40.90
2019-04-22T18:31:26.818Z,41.00
2019-04-22T18:34:01.976Z,40.90
2019-04-22T18:36:33.309Z,40.50
2019-04-22T18:39:11.519Z,41.20
2019-04-22T18:41:34.064Z,40.70
2019-04-22T18:44:11.509Z,41.00
2019-04-22T18:46:36.985Z,40.70
2019-04-22T18:49:08.162Z,40.70
2019-04-22T18:51:46.324Z,40.60
2019-04-22T18:54:21.212Z,40.60
2019-04-22T18:56:50.866Z,40.90
2019-04-22T18:59:13.529Z,40.60
2019-04-22T19:01:58.637Z,40.40
2019-04-22T19:04:31.749Z,40.90
2019-04-22T19:07:19.006Z,41.20
2019-04-22T19:10:00.020Z,41.90
2019-04-22T19:12:27.501Z,42.10
2019-04-22T19:14:53.037Z,41.70
2019-04-22T19:17:31.294Z,41.40
2019-04-22T19:19:50.018Z,41.00
2019-04-22T19:22:19.617Z,41.40
2019-04-22T19:24:45.465Z,41.40
2019-04-22T19:27:16.295Z,40.90
2019-04-22T19:29:53.985Z,40.90
2019-04-22T19:32:21.337Z,41.00
2019-04-22T19:34:48.190Z,40.90
2019-04-22T19:37:20.757Z,41.20
2019-04-22T19:40:01.208Z,41.20
2019-04-22T19:42:30.148Z,40.80
2019-04-22T19:44:55.012Z,41.20
2019-04-22T19:50:01.025Z,41.30
2019-04-22T19:52:30.286Z,41.20
2019-04-22T19:54:58.344Z,41.30
2019-04-22T19:57:22.611Z,41.40
2019-04-22T19:59:56.269Z,41.30
2019-04-22T20:02:39.221Z,41.10
2019-04-22T20:05:24.912Z,40.70
2019-04-22T20:07:41.610Z,40.70
2019-04-22T20:10:19.594Z,40.80
2019-04-22T20:12:42.502Z,40.20
2019-04-22T20:15:14.307Z,39.90
2019-04-22T20:18:11.450Z,40.60
2019-04-22T20:20:22.794Z,39.90
2019-04-22T20:22:45.138Z,40.40
2019-04-22T20:25:07.566Z,40.20
2019-04-22T20:27:47.465Z,40.10
2019-04-22T20:30:23.453Z,40.00
2019-04-22T20:32:47.668Z,40.10
2019-04-22T20:35:24.857Z,40.10
2019-04-22T20:37:54.962Z,40.20
2019-04-22T20:40:25.268Z,39.80
2019-04-22T20:42:56.767Z,40.20
2019-04-22T20:45:25.085Z,40.50
2019-04-22T20:47:45.496Z,40.50
2019-04-22T20:50:32.875Z,40.70
2019-04-22T20:53:02.434Z,40.40
2019-04-22T20:55:19.172Z,40.40
2019-04-22T20:57:59.035Z,40.30
2019-04-22T21:00:23.480Z,40.10
2019-04-22T21:02:48.792Z,40.40
2019-04-22T21:05:25.096Z,40.50
2019-04-22T21:08:06.330Z,40.20
2019-04-22T21:10:23.190Z,39.90
2019-04-22T21:12:56.641Z,39.50
2019-04-22T21:15:39.363Z,39.60
2019-04-22T21:18:02.929Z,39.70
2019-04-22T21:20:39.254Z,39.70
2019-04-22T21:23:02.618Z,39.00
2019-04-22T21:25:25.301Z,39.20
2019-04-22T21:28:04.826Z,39.20
2019-04-22T21:30:34.261Z,38.60
2019-04-22T21:32:58.018Z,37.90
2019-04-22T21:35:53.884Z,38.40
2019-04-22T21:38:09.861Z,38.70
2019-04-22T21:40:37.573Z,38.90
2019-04-22T21:43:13.383Z,39.10
2019-04-22T21:45:28.038Z,39.10
2019-04-22T21:48:20.106Z,39.30
2019-04-22T21:51:01.294Z,39.30
2019-04-22T21:53:16.466Z,39.10
2019-04-22T21:55:43.683Z,38.90
2019-04-22T21:58:31.858Z,39.00
2019-04-22T22:01:16.949Z,39.00
2019-04-22T22:03:39.630Z,38.90
2019-04-22T22:05:58.703Z,39.10
2019-04-22T22:08:42.470Z,38.50
2019-04-22T22:11:06.389Z,38.40
2019-04-22T22:13:39.284Z,38.50
2019-04-22T22:16:04.060Z,38.40
2019-04-22T22:18:29.990Z,38.00
2019-04-22T22:21:29.903Z,38.10
2019-04-22T22:24:01.270Z,38.20
2019-04-22T22:26:05.705Z,37.90
2019-04-22T22:29:03.518Z,37.70
2019-04-22T22:31:17.322Z,37.70
2019-04-22T22:33:43.243Z,37.70
2019-04-22T22:36:08.637Z,37.20
2019-04-22T22:38:35.118Z,37.70
2019-04-22T22:40:52.005Z,37.30
2019-04-22T22:43:29.956Z,37.30
2019-04-22T22:46:03.267Z,37.80
2019-04-22T22:48:46.156Z,37.80
2019-04-22T22:51:15.546Z,37.40
2019-04-22T22:53:46.332Z,37.40
2019-04-22T22:56:10.465Z,37.50
2019-04-22T22:58:45.921Z,37.90
2019-04-22T23:01:16.090Z,37.90
2019-04-22T23:03:51.750Z,37.70
2019-04-22T23:06:22.695Z,37.40
2019-04-22T23:08:51.645Z,37.30
2019-04-22T23:11:25.278Z,37.30
2019-04-22T23:13:49.936Z,36.60
2019-04-22T23:16:10.082Z,36.50
2019-04-22T23:18:28.031Z,36.90
2019-04-22T23:20:58.892Z,37.00
2019-04-22T23:23:45.352Z,36.80
2019-04-22T23:26:37.106Z,36.60
2019-04-22T23:29:15.689Z,36.90
2019-04-22T23:31:46.831Z,36.90
2019-04-22T23:34:22.711Z,37.10
2019-04-22T23:37:11.824Z,37.30
2019-04-22T23:39:56.098Z,37.40
2019-04-22T23:42:23.695Z,37.20
2019-04-22T23:44:50.635Z,37.40
2019-04-22T23:47:10.921Z,37.40
2019-04-22T23:49:53.710Z,37.30
2019-04-22T23:52:23.910Z,37.30
2019-04-22T23:54:58.857Z,37.30
2019-04-22T23:57:30.795Z,37.60
2019-04-22T23:59:58.569Z,37.20
